CheckWX is a tool to help pilots better visualize weather data.  It is not intended as a substitute for an official pre-flight weather briefing.

22:33:15 UTC

KOAK METAR
Metropolitan Oakland International Airport
Oakland, California, USA
Current

40 mins ago

KOAK 062153Z 17007KT 10SM BKN047 OVC065 17/11 A2994 RMK AO2 SLP138 T01720106
Observed
Dec-6 @ 21:53 UTC
Wind
  • 170° at 7 KTS
Visibility
10 SM
Flight Rules
VFR
Cloud Levels
  • Broken at 4,700' AGL
  • Overcast at 6,500' AGL
Temperature
17°C / 63°F
Dewpoint
11°C / 52°F
Humidity
68%
Altimeter
29.94" Hg
Pressure
1013.92 hPa
Previous

2 hours ago

KOAK 062053Z 15015G19KT 10SM OVC042 18/10 A2995 RMK AO2 SLP141 T01830100 58030
Observed
Dec-6 @ 20:53 UTC
Wind
  • 150° at 15 KTS
  • Gusting to 19 KTS
Visibility
10 SM
Flight Rules
VFR
Cloud Levels
  • Overcast at 4,200' AGL
Temperature
18°C / 64°F
Dewpoint
10°C / 50°F
Humidity
60%
Altimeter
29.95" Hg
Pressure
1014.22 hPa
Previous

3 hours ago

KOAK 061953Z 16013KT 10SM FEW038 BKN060 18/10 A2998 RMK AO2 SLP151 T01830100
Observed
Dec-6 @ 19:53 UTC
Wind
  • 160° at 13 KTS
Visibility
10 SM
Flight Rules
VFR
Cloud Levels
  • Few at 3,800' AGL
  • Broken at 6,000' AGL
Temperature
18°C / 64°F
Dewpoint
10°C / 50°F
Humidity
60%
Altimeter
29.98" Hg
Pressure
1015.22 hPa